sensor_id;sensor_type;location;lat;lon;timestamp;P1;durP1;ratioP1;P2;durP2;ratioP2
8895;SDS011;4484;48.928;10.066;2022-12-05T00:01:23;12.17;;;5.73;;
8895;SDS011;4484;48.928;10.066;2022-12-05T00:04:01;8.63;;;5.37;;
8895;SDS011;4484;48.928;10.066;2022-12-05T00:06:30;8.27;;;5.00;;
8895;SDS011;4484;48.928;10.066;2022-12-05T00:09:00;8.27;;;5.70;;
8895;SDS011;4484;48.928;10.066;2022-12-05T00:11:29;8.67;;;4.57;;
8895;SDS011;4484;48.928;10.066;2022-12-05T00:13:58;10.27;;;5.60;;
8895;SDS011;4484;48.928;10.066;2022-12-05T00:16:27;10.63;;;6.30;;
8895;SDS011;4484;48.928;10.066;2022-12-05T00:18:57;10.97;;;5.93;;
8895;SDS011;4484;48.928;10.066;2022-12-05T00:21:28;11.13;;;6.43;;
8895;SDS011;4484;48.928;10.066;2022-12-05T00:23:57;9.80;;;6.40;;
8895;SDS011;4484;48.928;10.066;2022-12-05T00:26:24;10.37;;;6.27;;
8895;SDS011;4484;48.928;10.066;2022-12-05T00:28:52;9.33;;;6.00;;
8895;SDS011;4484;48.928;10.066;2022-12-05T00:31:22;17.37;;;6.63;;
8895;SDS011;4484;48.928;10.066;2022-12-05T00:33:50;10.20;;;5.70;;
8895;SDS011;4484;48.928;10.066;2022-12-05T00:36:24;20.23;;;6.33;;
8895;SDS011;4484;48.928;10.066;2022-12-05T00:38:52;11.60;;;6.60;;
8895;SDS011;4484;48.928;10.066;2022-12-05T00:41:21;13.33;;;7.57;;
8895;SDS011;4484;48.928;10.066;2022-12-05T00:43:50;19.20;;;8.63;;
8895;SDS011;4484;48.928;10.066;2022-12-05T00:46:18;15.80;;;8.63;;
8895;SDS011;4484;48.928;10.066;2022-12-05T00:48:47;17.27;;;9.27;;
8895;SDS011;4484;48.928;10.066;2022-12-05T00:51:15;17.83;;;9.33;;
8895;SDS011;4484;48.928;10.066;2022-12-05T00:53:45;16.13;;;9.10;;
8895;SDS011;4484;48.928;10.066;2022-12-05T00:56:14;14.47;;;8.47;;
8895;SDS011;4484;48.928;10.066;2022-12-05T00:58:43;13.90;;;8.87;;
8895;SDS011;4484;48.928;10.066;2022-12-05T01:01:11;15.60;;;9.33;;
8895;SDS011;4484;48.928;10.066;2022-12-05T01:03:38;17.70;;;9.30;;
8895;SDS011;4484;48.928;10.066;2022-12-05T01:06:05;17.33;;;9.63;;
8895;SDS011;4484;48.928;10.066;2022-12-05T01:08:34;21.57;;;9.77;;
8895;SDS011;4484;48.928;10.066;2022-12-05T01:11:01;15.43;;;9.03;;
8895;SDS011;4484;48.928;10.066;2022-12-05T01:13:29;18.50;;;9.93;;
8895;SDS011;4484;48.928;10.066;2022-12-05T01:15:57;20.00;;;8.87;;
8895;SDS011;4484;48.928;10.066;2022-12-05T01:18:24;19.90;;;10.13;;
8895;SDS011;4484;48.928;10.066;2022-12-05T01:20:52;17.30;;;9.63;;
8895;SDS011;4484;48.928;10.066;2022-12-05T01:23:20;17.97;;;9.77;;
8895;SDS011;4484;48.928;10.066;2022-12-05T01:25:48;19.07;;;10.27;;
8895;SDS011;4484;48.928;10.066;2022-12-05T01:28:16;17.27;;;9.30;;
8895;SDS011;4484;48.928;10.066;2022-12-05T01:30:44;19.13;;;9.80;;
8895;SDS011;4484;48.928;10.066;2022-12-05T01:33:13;17.23;;;9.53;;
8895;SDS011;4484;48.928;10.066;2022-12-05T01:35:40;19.30;;;10.10;;
8895;SDS011;4484;48.928;10.066;2022-12-05T01:38:09;20.53;;;10.70;;
8895;SDS011;4484;48.928;10.066;2022-12-05T01:40:37;22.13;;;10.97;;
8895;SDS011;4484;48.928;10.066;2022-12-05T01:43:05;23.97;;;10.57;;
8895;SDS011;4484;48.928;10.066;2022-12-05T01:45:41;20.53;;;11.33;;
8895;SDS011;4484;48.928;10.066;2022-12-05T01:48:14;21.53;;;11.13;;
8895;SDS011;4484;48.928;10.066;2022-12-05T01:50:44;19.80;;;11.47;;
8895;SDS011;4484;48.928;10.066;2022-12-05T01:53:14;22.33;;;10.93;;
8895;SDS011;4484;48.928;10.066;2022-12-05T01:55:42;19.30;;;11.00;;
8895;SDS011;4484;48.928;10.066;2022-12-05T01:58:10;21.17;;;10.80;;
8895;SDS011;4484;48.928;10.066;2022-12-05T02:00:40;21.93;;;11.93;;
8895;SDS011;4484;48.928;10.066;2022-12-05T02:03:08;21.93;;;11.47;;
8895;SDS011;4484;48.928;10.066;2022-12-05T02:05:39;20.33;;;11.53;;
8895;SDS011;4484;48.928;10.066;2022-12-05T02:08:08;22.63;;;11.30;;
8895;SDS011;4484;48.928;10.066;2022-12-05T02:10:38;20.93;;;10.83;;
8895;SDS011;4484;48.928;10.066;2022-12-05T02:15:59;18.50;;;11.20;;
8895;SDS011;4484;48.928;10.066;2022-12-05T02:18:59;22.40;;;11.60;;
8895;SDS011;4484;48.928;10.066;2022-12-05T02:27:27;21.60;;;11.93;;
8895;SDS011;4484;48.928;10.066;2022-12-05T02:38:11;23.10;;;12.23;;
8895;SDS011;4484;48.928;10.066;2022-12-05T02:41:01;22.53;;;11.60;;
8895;SDS011;4484;48.928;10.066;2022-12-05T02:43:32;22.73;;;12.87;;
8895;SDS011;4484;48.928;10.066;2022-12-05T02:46:01;25.17;;;12.23;;
8895;SDS011;4484;48.928;10.066;2022-12-05T02:48:42;25.23;;;11.63;;
8895;SDS011;4484;48.928;10.066;2022-12-05T02:51:12;22.47;;;12.23;;
8895;SDS011;4484;48.928;10.066;2022-12-05T02:53:43;22.73;;;12.20;;
8895;SDS011;4484;48.928;10.066;2022-12-05T02:56:10;20.03;;;11.90;;
8895;SDS011;4484;48.928;10.066;2022-12-05T02:58:39;22.57;;;11.63;;
8895;SDS011;4484;48.928;10.066;2022-12-05T03:01:13;23.33;;;12.67;;
8895;SDS011;4484;48.928;10.066;2022-12-05T03:03:40;24.40;;;12.37;;
8895;SDS011;4484;48.928;10.066;2022-12-05T03:06:11;22.40;;;11.87;;
8895;SDS011;4484;48.928;10.066;2022-12-05T03:08:43;20.40;;;11.30;;
8895;SDS011;4484;48.928;10.066;2022-12-05T03:11:31;20.13;;;10.77;;
8895;SDS011;4484;48.928;10.066;2022-12-05T03:14:05;19.33;;;10.70;;
8895;SDS011;4484;48.928;10.066;2022-12-05T03:16:38;22.33;;;11.27;;
8895;SDS011;4484;48.928;10.066;2022-12-05T03:19:10;18.07;;;10.57;;
8895;SDS011;4484;48.928;10.066;2022-12-05T03:21:46;22.43;;;10.63;;
8895;SDS011;4484;48.928;10.066;2022-12-05T03:24:18;16.20;;;9.93;;
8895;SDS011;4484;48.928;10.066;2022-12-05T03:34:48;18.63;;;9.07;;
8895;SDS011;4484;48.928;10.066;2022-12-05T03:37:53;16.10;;;8.80;;
8895;SDS011;4484;48.928;10.066;2022-12-05T03:43:20;15.83;;;8.77;;
8895;SDS011;4484;48.928;10.066;2022-12-05T03:45:50;13.13;;;8.40;;
8895;SDS011;4484;48.928;10.066;2022-12-05T03:51:22;14.23;;;7.63;;
8895;SDS011;4484;48.928;10.066;2022-12-05T03:53:56;13.17;;;8.13;;
8895;SDS011;4484;48.928;10.066;2022-12-05T03:56:40;12.23;;;7.67;;
8895;SDS011;4484;48.928;10.066;2022-12-05T04:01:59;14.97;;;9.03;;
8895;SDS011;4484;48.928;10.066;2022-12-05T04:04:35;12.17;;;7.93;;
8895;SDS011;4484;48.928;10.066;2022-12-05T04:07:05;13.97;;;7.77;;
8895;SDS011;4484;48.928;10.066;2022-12-05T04:09:38;14.97;;;8.67;;
8895;SDS011;4484;48.928;10.066;2022-12-05T04:12:33;15.17;;;8.77;;
8895;SDS011;4484;48.928;10.066;2022-12-05T04:15:05;14.40;;;8.63;;
8895;SDS011;4484;48.928;10.066;2022-12-05T04:17:47;15.93;;;9.07;;
8895;SDS011;4484;48.928;10.066;2022-12-05T04:20:20;12.57;;;7.80;;
8895;SDS011;4484;48.928;10.066;2022-12-05T04:23:10;14.07;;;8.13;;
8895;SDS011;4484;48.928;10.066;2022-12-05T04:26:13;12.57;;;7.73;;
8895;SDS011;4484;48.928;10.066;2022-12-05T04:28:41;14.67;;;8.87;;
8895;SDS011;4484;48.928;10.066;2022-12-05T04:31:15;13.10;;;7.83;;
8895;SDS011;4484;48.928;10.066;2022-12-05T04:33:56;12.77;;;7.00;;
8895;SDS011;4484;48.928;10.066;2022-12-05T04:36:38;15.13;;;7.57;;
8895;SDS011;4484;48.928;10.066;2022-12-05T04:39:12;12.27;;;7.00;;
8895;SDS011;4484;48.928;10.066;2022-12-05T04:41:56;13.60;;;7.60;;
8895;SDS011;4484;48.928;10.066;2022-12-05T04:44:38;11.67;;;8.40;;
8895;SDS011;4484;48.928;10.066;2022-12-05T04:47:12;10.87;;;7.80;;
8895;SDS011;4484;48.928;10.066;2022-12-05T04:49:42;14.03;;;8.27;;
8895;SDS011;4484;48.928;10.066;2022-12-05T04:52:18;11.50;;;7.30;;
8895;SDS011;4484;48.928;10.066;2022-12-05T04:58:10;14.40;;;8.30;;
8895;SDS011;4484;48.928;10.066;2022-12-05T05:00:45;13.47;;;7.90;;
8895;SDS011;4484;48.928;10.066;2022-12-05T05:03:39;12.40;;;7.13;;
8895;SDS011;4484;48.928;10.066;2022-12-05T05:06:11;12.63;;;8.20;;
8895;SDS011;4484;48.928;10.066;2022-12-05T05:08:45;13.47;;;7.63;;
8895;SDS011;4484;48.928;10.066;2022-12-05T05:13:47;11.57;;;7.10;;
8895;SDS011;4484;48.928;10.066;2022-12-05T05:16:15;14.40;;;7.50;;
8895;SDS011;4484;48.928;10.066;2022-12-05T05:18:47;17.83;;;9.33;;
8895;SDS011;4484;48.928;10.066;2022-12-05T05:21:19;13.57;;;7.33;;
8895;SDS011;4484;48.928;10.066;2022-12-05T05:23:51;12.27;;;7.80;;
8895;SDS011;4484;48.928;10.066;2022-12-05T05:26:18;13.17;;;8.20;;
8895;SDS011;4484;48.928;10.066;2022-12-05T05:28:45;11.37;;;7.53;;
8895;SDS011;4484;48.928;10.066;2022-12-05T05:31:13;12.87;;;7.27;;
8895;SDS011;4484;48.928;10.066;2022-12-05T05:33:40;11.97;;;7.07;;
8895;SDS011;4484;48.928;10.066;2022-12-05T05:36:08;12.90;;;7.43;;
8895;SDS011;4484;48.928;10.066;2022-12-05T05:38:38;13.00;;;7.17;;
8895;SDS011;4484;48.928;10.066;2022-12-05T05:41:13;11.83;;;7.67;;
8895;SDS011;4484;48.928;10.066;2022-12-05T05:43:42;12.00;;;7.37;;
8895;SDS011;4484;48.928;10.066;2022-12-05T05:46:09;11.27;;;7.27;;
8895;SDS011;4484;48.928;10.066;2022-12-05T05:48:37;11.03;;;6.50;;
8895;SDS011;4484;48.928;10.066;2022-12-05T05:51:05;11.17;;;7.10;;
8895;SDS011;4484;48.928;10.066;2022-12-05T05:53:33;11.60;;;7.03;;
8895;SDS011;4484;48.928;10.066;2022-12-05T05:56:04;14.33;;;7.73;;
8895;SDS011;4484;48.928;10.066;2022-12-05T05:58:33;15.90;;;7.97;;
8895;SDS011;4484;48.928;10.066;2022-12-05T06:01:03;12.63;;;7.20;;
8895;SDS011;4484;48.928;10.066;2022-12-05T06:03:57;10.97;;;6.57;;
8895;SDS011;4484;48.928;10.066;2022-12-05T06:06:24;12.37;;;7.10;;
8895;SDS011;4484;48.928;10.066;2022-12-05T06:08:51;9.97;;;7.10;;
8895;SDS011;4484;48.928;10.066;2022-12-05T06:11:20;11.53;;;6.90;;
8895;SDS011;4484;48.928;10.066;2022-12-05T06:13:53;11.50;;;7.17;;
8895;SDS011;4484;48.928;10.066;2022-12-05T06:16:20;11.43;;;6.80;;
8895;SDS011;4484;48.928;10.066;2022-12-05T06:18:47;10.93;;;6.77;;
8895;SDS011;4484;48.928;10.066;2022-12-05T06:21:15;10.00;;;6.20;;
8895;SDS011;4484;48.928;10.066;2022-12-05T06:23:42;13.70;;;8.50;;
8895;SDS011;4484;48.928;10.066;2022-12-05T06:26:10;13.73;;;7.63;;
8895;SDS011;4484;48.928;10.066;2022-12-05T06:28:38;12.93;;;7.20;;
8895;SDS011;4484;48.928;10.066;2022-12-05T06:31:06;12.47;;;7.67;;
8895;SDS011;4484;48.928;10.066;2022-12-05T06:33:40;11.37;;;7.47;;
8895;SDS011;4484;48.928;10.066;2022-12-05T06:36:08;12.43;;;7.40;;
8895;SDS011;4484;48.928;10.066;2022-12-05T06:38:37;10.73;;;6.63;;
8895;SDS011;4484;48.928;10.066;2022-12-05T06:41:13;14.37;;;7.27;;
8895;SDS011;4484;48.928;10.066;2022-12-05T06:43:41;11.70;;;6.63;;
8895;SDS011;4484;48.928;10.066;2022-12-05T06:46:09;12.97;;;7.37;;
8895;SDS011;4484;48.928;10.066;2022-12-05T06:48:38;12.57;;;7.27;;
8895;SDS011;4484;48.928;10.066;2022-12-05T06:51:07;11.23;;;7.10;;
8895;SDS011;4484;48.928;10.066;2022-12-05T06:53:36;15.30;;;7.73;;
8895;SDS011;4484;48.928;10.066;2022-12-05T06:56:04;12.63;;;6.67;;
8895;SDS011;4484;48.928;10.066;2022-12-05T06:58:33;12.70;;;7.43;;
8895;SDS011;4484;48.928;10.066;2022-12-05T07:01:00;12.60;;;7.30;;
8895;SDS011;4484;48.928;10.066;2022-12-05T07:03:49;11.97;;;6.97;;
8895;SDS011;4484;48.928;10.066;2022-12-05T07:06:16;13.80;;;7.53;;
8895;SDS011;4484;48.928;10.066;2022-12-05T07:08:43;11.73;;;6.73;;
8895;SDS011;4484;48.928;10.066;2022-12-05T07:11:10;12.87;;;7.23;;
8895;SDS011;4484;48.928;10.066;2022-12-05T07:13:37;11.70;;;7.33;;
8895;SDS011;4484;48.928;10.066;2022-12-05T07:16:04;10.83;;;6.47;;
8895;SDS011;4484;48.928;10.066;2022-12-05T07:18:33;13.30;;;7.60;;
8895;SDS011;4484;48.928;10.066;2022-12-05T07:21:03;11.90;;;7.53;;
8895;SDS011;4484;48.928;10.066;2022-12-05T07:23:40;12.47;;;6.90;;
8895;SDS011;4484;48.928;10.066;2022-12-05T07:26:09;12.73;;;7.13;;
8895;SDS011;4484;48.928;10.066;2022-12-05T07:28:38;15.00;;;8.00;;
8895;SDS011;4484;48.928;10.066;2022-12-05T07:31:06;13.20;;;8.63;;
8895;SDS011;4484;48.928;10.066;2022-12-05T07:33:35;11.87;;;7.23;;
8895;SDS011;4484;48.928;10.066;2022-12-05T07:36:07;15.43;;;8.37;;
8895;SDS011;4484;48.928;10.066;2022-12-05T07:38:37;13.07;;;7.70;;
8895;SDS011;4484;48.928;10.066;2022-12-05T07:41:05;12.53;;;8.33;;
8895;SDS011;4484;48.928;10.066;2022-12-05T07:43:38;13.57;;;8.13;;
8895;SDS011;4484;48.928;10.066;2022-12-05T07:46:06;15.23;;;8.00;;
8895;SDS011;4484;48.928;10.066;2022-12-05T07:48:37;15.73;;;9.57;;
8895;SDS011;4484;48.928;10.066;2022-12-05T07:51:05;14.67;;;7.77;;
8895;SDS011;4484;48.928;10.066;2022-12-05T07:53:33;18.03;;;9.23;;
8895;SDS011;4484;48.928;10.066;2022-12-05T07:56:04;12.70;;;8.07;;
8895;SDS011;4484;48.928;10.066;2022-12-05T07:58:33;17.97;;;11.03;;
8895;SDS011;4484;48.928;10.066;2022-12-05T08:01:43;15.07;;;9.73;;
8895;SDS011;4484;48.928;10.066;2022-12-05T08:03:52;15.53;;;8.37;;
8895;SDS011;4484;48.928;10.066;2022-12-05T08:06:22;16.37;;;9.20;;
8895;SDS011;4484;48.928;10.066;2022-12-05T08:08:51;14.33;;;8.80;;
8895;SDS011;4484;48.928;10.066;2022-12-05T08:11:23;12.67;;;7.57;;
8895;SDS011;4484;48.928;10.066;2022-12-05T08:13:52;17.07;;;9.83;;
8895;SDS011;4484;48.928;10.066;2022-12-05T08:16:20;15.30;;;8.60;;
8895;SDS011;4484;48.928;10.066;2022-12-05T08:18:53;16.90;;;9.33;;
8895;SDS011;4484;48.928;10.066;2022-12-05T08:21:21;14.13;;;9.43;;
8895;SDS011;4484;48.928;10.066;2022-12-05T08:23:48;17.53;;;10.70;;
8895;SDS011;4484;48.928;10.066;2022-12-05T08:26:16;15.57;;;8.90;;
8895;SDS011;4484;48.928;10.066;2022-12-05T08:28:50;16.37;;;8.87;;
8895;SDS011;4484;48.928;10.066;2022-12-05T08:31:19;14.27;;;8.30;;
8895;SDS011;4484;48.928;10.066;2022-12-05T08:33:49;16.40;;;8.77;;
8895;SDS011;4484;48.928;10.066;2022-12-05T08:36:25;11.90;;;7.53;;
8895;SDS011;4484;48.928;10.066;2022-12-05T08:38:57;15.70;;;8.67;;
8895;SDS011;4484;48.928;10.066;2022-12-05T08:41:25;15.67;;;8.60;;
8895;SDS011;4484;48.928;10.066;2022-12-05T08:43:57;13.93;;;8.50;;
8895;SDS011;4484;48.928;10.066;2022-12-05T08:46:29;15.67;;;8.47;;
8895;SDS011;4484;48.928;10.066;2022-12-05T08:48:57;11.50;;;7.40;;
8895;SDS011;4484;48.928;10.066;2022-12-05T08:51:24;14.27;;;8.10;;
8895;SDS011;4484;48.928;10.066;2022-12-05T08:53:52;14.87;;;9.03;;
8895;SDS011;4484;48.928;10.066;2022-12-05T08:56:22;15.53;;;9.57;;
8895;SDS011;4484;48.928;10.066;2022-12-05T08:58:53;13.50;;;9.00;;
8895;SDS011;4484;48.928;10.066;2022-12-05T09:01:28;14.50;;;9.13;;
8895;SDS011;4484;48.928;10.066;2022-12-05T09:03:59;14.07;;;8.90;;
8895;SDS011;4484;48.928;10.066;2022-12-05T09:06:26;13.33;;;9.10;;
8895;SDS011;4484;48.928;10.066;2022-12-05T09:08:55;14.77;;;8.87;;
8895;SDS011;4484;48.928;10.066;2022-12-05T09:11:28;14.50;;;8.70;;
8895;SDS011;4484;48.928;10.066;2022-12-05T09:13:57;15.13;;;8.17;;
8895;SDS011;4484;48.928;10.066;2022-12-05T09:16:32;11.77;;;7.50;;
8895;SDS011;4484;48.928;10.066;2022-12-05T09:19:05;15.63;;;8.33;;
8895;SDS011;4484;48.928;10.066;2022-12-05T09:21:36;13.93;;;8.73;;
8895;SDS011;4484;48.928;10.066;2022-12-05T09:24:03;16.53;;;9.07;;
8895;SDS011;4484;48.928;10.066;2022-12-05T09:26:30;15.63;;;9.00;;
8895;SDS011;4484;48.928;10.066;2022-12-05T09:28:57;14.30;;;8.07;;
8895;SDS011;4484;48.928;10.066;2022-12-05T09:31:25;11.70;;;7.43;;
8895;SDS011;4484;48.928;10.066;2022-12-05T09:33:52;12.73;;;7.93;;
8895;SDS011;4484;48.928;10.066;2022-12-05T09:36:20;10.37;;;7.03;;
8895;SDS011;4484;48.928;10.066;2022-12-05T09:38:49;12.30;;;7.70;;
8895;SDS011;4484;48.928;10.066;2022-12-05T09:49:55;14.43;;;8.40;;
8895;SDS011;4484;48.928;10.066;2022-12-05T09:52:34;13.23;;;8.37;;
8895;SDS011;4484;48.928;10.066;2022-12-05T09:55:05;12.70;;;7.67;;
8895;SDS011;4484;48.928;10.066;2022-12-05T09:57:54;11.87;;;7.57;;
8895;SDS011;4484;48.928;10.066;2022-12-05T10:00:24;12.20;;;7.53;;
8895;SDS011;4484;48.928;10.066;2022-12-05T10:05:42;12.63;;;7.90;;
8895;SDS011;4484;48.928;10.066;2022-12-05T10:11:27;13.00;;;8.63;;
8895;SDS011;4484;48.928;10.066;2022-12-05T10:16:47;14.37;;;9.50;;
8895;SDS011;4484;48.928;10.066;2022-12-05T10:19:22;17.20;;;9.90;;
8895;SDS011;4484;48.928;10.066;2022-12-05T10:22:03;18.40;;;10.50;;
8895;SDS011;4484;48.928;10.066;2022-12-05T10:24:47;13.70;;;8.87;;
8895;SDS011;4484;48.928;10.066;2022-12-05T10:27:31;12.23;;;7.40;;
8895;SDS011;4484;48.928;10.066;2022-12-05T10:38:03;16.67;;;9.43;;
8895;SDS011;4484;48.928;10.066;2022-12-05T10:40:36;16.50;;;9.97;;
8895;SDS011;4484;48.928;10.066;2022-12-05T10:43:07;16.43;;;10.27;;
8895;SDS011;4484;48.928;10.066;2022-12-05T10:45:40;13.43;;;9.20;;
8895;SDS011;4484;48.928;10.066;2022-12-05T10:48:10;12.37;;;8.13;;
8895;SDS011;4484;48.928;10.066;2022-12-05T10:50:39;12.93;;;7.80;;
8895;SDS011;4484;48.928;10.066;2022-12-05T10:53:10;10.43;;;6.70;;
8895;SDS011;4484;48.928;10.066;2022-12-05T10:55:42;10.57;;;7.67;;
8895;SDS011;4484;48.928;10.066;2022-12-05T10:58:32;11.87;;;7.20;;
8895;SDS011;4484;48.928;10.066;2022-12-05T11:01:08;12.33;;;7.70;;
8895;SDS011;4484;48.928;10.066;2022-12-05T11:03:40;10.20;;;6.47;;
8895;SDS011;4484;48.928;10.066;2022-12-05T11:08:41;12.10;;;7.20;;
8895;SDS011;4484;48.928;10.066;2022-12-05T11:11:32;12.83;;;8.87;;
8895;SDS011;4484;48.928;10.066;2022-12-05T11:14:06;12.27;;;8.17;;
8895;SDS011;4484;48.928;10.066;2022-12-05T11:16:54;11.23;;;7.93;;
8895;SDS011;4484;48.928;10.066;2022-12-05T11:19:27;11.13;;;7.17;;
8895;SDS011;4484;48.928;10.066;2022-12-05T11:21:57;9.30;;;6.33;;
8895;SDS011;4484;48.928;10.066;2022-12-05T11:29:42;9.90;;;6.83;;
8895;SDS011;4484;48.928;10.066;2022-12-05T11:32:18;8.20;;;6.13;;
8895;SDS011;4484;48.928;10.066;2022-12-05T11:34:52;10.80;;;7.17;;
8895;SDS011;4484;48.928;10.066;2022-12-05T11:37:39;11.30;;;8.03;;
8895;SDS011;4484;48.928;10.066;2022-12-05T11:40:11;12.67;;;8.90;;
8895;SDS011;4484;48.928;10.066;2022-12-05T11:45:38;21.63;;;11.70;;
8895;SDS011;4484;48.928;10.066;2022-12-05T11:50:49;22.50;;;11.80;;
8895;SDS011;4484;48.928;10.066;2022-12-05T11:56:47;12.13;;;7.07;;
8895;SDS011;4484;48.928;10.066;2022-12-05T12:04:57;15.57;;;6.83;;
8895;SDS011;4484;48.928;10.066;2022-12-05T12:07:44;11.93;;;6.40;;
8895;SDS011;4484;48.928;10.066;2022-12-05T12:10:39;9.73;;;5.93;;
8895;SDS011;4484;48.928;10.066;2022-12-05T12:24:37;11.90;;;6.30;;
8895;SDS011;4484;48.928;10.066;2022-12-05T12:30:16;19.13;;;8.67;;
8895;SDS011;4484;48.928;10.066;2022-12-05T12:32:57;24.53;;;11.30;;
8895;SDS011;4484;48.928;10.066;2022-12-05T12:40:48;10.50;;;7.03;;
8895;SDS011;4484;48.928;10.066;2022-12-05T12:46:39;8.93;;;6.27;;
8895;SDS011;4484;48.928;10.066;2022-12-05T12:51:59;10.40;;;6.33;;
8895;SDS011;4484;48.928;10.066;2022-12-05T12:55:21;8.83;;;6.03;;
8895;SDS011;4484;48.928;10.066;2022-12-05T13:05:38;10.43;;;7.63;;
8895;SDS011;4484;48.928;10.066;2022-12-05T13:10:43;9.23;;;6.70;;
8895;SDS011;4484;48.928;10.066;2022-12-05T13:13:12;9.70;;;6.93;;
8895;SDS011;4484;48.928;10.066;2022-12-05T13:16:05;9.03;;;6.03;;
8895;SDS011;4484;48.928;10.066;2022-12-05T13:18:33;9.87;;;6.30;;
8895;SDS011;4484;48.928;10.066;2022-12-05T13:21:05;7.07;;;5.40;;
8895;SDS011;4484;48.928;10.066;2022-12-05T13:23:35;8.77;;;6.27;;
8895;SDS011;4484;48.928;10.066;2022-12-05T13:26:11;10.73;;;7.17;;
8895;SDS011;4484;48.928;10.066;2022-12-05T13:28:50;11.50;;;7.00;;
8895;SDS011;4484;48.928;10.066;2022-12-05T13:31:33;9.67;;;6.00;;
8895;SDS011;4484;48.928;10.066;2022-12-05T13:34:00;10.83;;;6.57;;
8895;SDS011;4484;48.928;10.066;2022-12-05T13:36:27;11.67;;;8.33;;
8895;SDS011;4484;48.928;10.066;2022-12-05T13:39:19;9.07;;;6.70;;
8895;SDS011;4484;48.928;10.066;2022-12-05T13:42:18;7.50;;;5.70;;
8895;SDS011;4484;48.928;10.066;2022-12-05T13:44:54;9.67;;;6.67;;
8895;SDS011;4484;48.928;10.066;2022-12-05T13:47:28;7.57;;;5.40;;
8895;SDS011;4484;48.928;10.066;2022-12-05T13:52:44;7.27;;;5.37;;
8895;SDS011;4484;48.928;10.066;2022-12-05T13:58:01;8.03;;;5.63;;
8895;SDS011;4484;48.928;10.066;2022-12-05T14:00:43;7.23;;;5.23;;
8895;SDS011;4484;48.928;10.066;2022-12-05T14:03:16;8.13;;;5.13;;
8895;SDS011;4484;48.928;10.066;2022-12-05T14:06:03;7.30;;;4.70;;
8895;SDS011;4484;48.928;10.066;2022-12-05T14:11:06;6.77;;;5.10;;
8895;SDS011;4484;48.928;10.066;2022-12-05T14:13:39;6.60;;;5.10;;
8895;SDS011;4484;48.928;10.066;2022-12-05T14:21:37;7.03;;;5.43;;
8895;SDS011;4484;48.928;10.066;2022-12-05T14:24:27;7.40;;;5.27;;
8895;SDS011;4484;48.928;10.066;2022-12-05T14:27:27;8.90;;;6.00;;
8895;SDS011;4484;48.928;10.066;2022-12-05T14:32:47;6.67;;;5.03;;
8895;SDS011;4484;48.928;10.066;2022-12-05T14:35:29;6.53;;;4.73;;
8895;SDS011;4484;48.928;10.066;2022-12-05T14:38:06;6.70;;;4.60;;
8895;SDS011;4484;48.928;10.066;2022-12-05T14:40:44;6.83;;;5.00;;
8895;SDS011;4484;48.928;10.066;2022-12-05T14:43:28;5.77;;;4.43;;
8895;SDS011;4484;48.928;10.066;2022-12-05T14:46:01;5.80;;;4.17;;
8895;SDS011;4484;48.928;10.066;2022-12-05T14:48:30;5.10;;;4.20;;
8895;SDS011;4484;48.928;10.066;2022-12-05T14:51:03;5.03;;;4.37;;
8895;SDS011;4484;48.928;10.066;2022-12-05T14:54:11;6.90;;;4.53;;
8895;SDS011;4484;48.928;10.066;2022-12-05T14:56:42;5.93;;;4.40;;
8895;SDS011;4484;48.928;10.066;2022-12-05T15:01:59;5.87;;;4.30;;
8895;SDS011;4484;48.928;10.066;2022-12-05T15:07:18;7.37;;;5.27;;
8895;SDS011;4484;48.928;10.066;2022-12-05T15:09:56;4.87;;;3.40;;
8895;SDS011;4484;48.928;10.066;2022-12-05T15:12:46;5.63;;;3.97;;
8895;SDS011;4484;48.928;10.066;2022-12-05T15:15:23;5.07;;;3.93;;
8895;SDS011;4484;48.928;10.066;2022-12-05T15:18:19;4.70;;;3.50;;
8895;SDS011;4484;48.928;10.066;2022-12-05T15:26:17;6.50;;;4.33;;
8895;SDS011;4484;48.928;10.066;2022-12-05T15:31:52;6.90;;;5.07;;
8895;SDS011;4484;48.928;10.066;2022-12-05T15:40:19;6.10;;;4.80;;
8895;SDS011;4484;48.928;10.066;2022-12-05T15:42:48;5.80;;;4.60;;
8895;SDS011;4484;48.928;10.066;2022-12-05T15:45:17;5.40;;;4.30;;
8895;SDS011;4484;48.928;10.066;2022-12-05T15:47:49;5.23;;;3.87;;
8895;SDS011;4484;48.928;10.066;2022-12-05T15:50:33;5.70;;;4.10;;
8895;SDS011;4484;48.928;10.066;2022-12-05T16:00:47;6.20;;;3.60;;
8895;SDS011;4484;48.928;10.066;2022-12-05T16:03:21;5.87;;;4.27;;
8895;SDS011;4484;48.928;10.066;2022-12-05T16:06:05;6.20;;;4.37;;
8895;SDS011;4484;48.928;10.066;2022-12-05T16:08:45;5.47;;;4.00;;
8895;SDS011;4484;48.928;10.066;2022-12-05T16:11:13;5.10;;;3.67;;
8895;SDS011;4484;48.928;10.066;2022-12-05T16:13:44;5.50;;;3.80;;
8895;SDS011;4484;48.928;10.066;2022-12-05T16:16:15;6.30;;;4.10;;
8895;SDS011;4484;48.928;10.066;2022-12-05T16:18:53;5.90;;;3.87;;
8895;SDS011;4484;48.928;10.066;2022-12-05T16:21:33;4.60;;;4.10;;
8895;SDS011;4484;48.928;10.066;2022-12-05T16:24:07;6.23;;;4.10;;
8895;SDS011;4484;48.928;10.066;2022-12-05T16:26:55;6.07;;;4.30;;
8895;SDS011;4484;48.928;10.066;2022-12-05T16:29:33;5.10;;;4.00;;
8895;SDS011;4484;48.928;10.066;2022-12-05T16:32:01;5.20;;;4.00;;
8895;SDS011;4484;48.928;10.066;2022-12-05T16:34:31;5.73;;;3.90;;
8895;SDS011;4484;48.928;10.066;2022-12-05T16:36:59;6.07;;;4.00;;
8895;SDS011;4484;48.928;10.066;2022-12-05T16:39:27;5.70;;;4.20;;
8895;SDS011;4484;48.928;10.066;2022-12-05T16:41:54;5.17;;;3.80;;
8895;SDS011;4484;48.928;10.066;2022-12-05T16:47:25;5.50;;;3.80;;
8895;SDS011;4484;48.928;10.066;2022-12-05T16:50:20;4.67;;;3.90;;
8895;SDS011;4484;48.928;10.066;2022-12-05T16:52:58;5.97;;;4.80;;
8895;SDS011;4484;48.928;10.066;2022-12-05T16:55:38;7.73;;;5.03;;
8895;SDS011;4484;48.928;10.066;2022-12-05T16:58:08;9.17;;;6.80;;
8895;SDS011;4484;48.928;10.066;2022-12-05T17:00:39;9.37;;;7.87;;
8895;SDS011;4484;48.928;10.066;2022-12-05T17:03:08;10.23;;;7.90;;
8895;SDS011;4484;48.928;10.066;2022-12-05T17:05:57;11.80;;;8.13;;
8895;SDS011;4484;48.928;10.066;2022-12-05T17:08:24;11.50;;;8.20;;
8895;SDS011;4484;48.928;10.066;2022-12-05T17:10:52;12.63;;;8.53;;
8895;SDS011;4484;48.928;10.066;2022-12-05T17:13:19;10.77;;;7.83;;
8895;SDS011;4484;48.928;10.066;2022-12-05T17:15:46;11.03;;;7.73;;
8895;SDS011;4484;48.928;10.066;2022-12-05T17:18:18;8.87;;;6.70;;
8895;SDS011;4484;48.928;10.066;2022-12-05T17:20:52;7.40;;;6.00;;
8895;SDS011;4484;48.928;10.066;2022-12-05T17:23:20;7.17;;;5.53;;
8895;SDS011;4484;48.928;10.066;2022-12-05T17:25:48;6.80;;;4.97;;
8895;SDS011;4484;48.928;10.066;2022-12-05T17:28:19;6.80;;;5.07;;
8895;SDS011;4484;48.928;10.066;2022-12-05T17:30:47;8.73;;;6.13;;
8895;SDS011;4484;48.928;10.066;2022-12-05T17:33:15;9.03;;;6.40;;
8895;SDS011;4484;48.928;10.066;2022-12-05T17:35:43;9.00;;;6.10;;
8895;SDS011;4484;48.928;10.066;2022-12-05T17:38:10;8.87;;;6.07;;
8895;SDS011;4484;48.928;10.066;2022-12-05T17:40:38;7.83;;;5.83;;
8895;SDS011;4484;48.928;10.066;2022-12-05T17:43:05;8.80;;;6.13;;
8895;SDS011;4484;48.928;10.066;2022-12-05T17:45:32;8.87;;;5.83;;
8895;SDS011;4484;48.928;10.066;2022-12-05T17:47:59;8.50;;;5.90;;
8895;SDS011;4484;48.928;10.066;2022-12-05T17:50:26;6.73;;;5.10;;
8895;SDS011;4484;48.928;10.066;2022-12-05T17:52:55;6.30;;;4.97;;
8895;SDS011;4484;48.928;10.066;2022-12-05T17:55:28;7.03;;;4.90;;
8895;SDS011;4484;48.928;10.066;2022-12-05T17:57:55;6.67;;;4.73;;
8895;SDS011;4484;48.928;10.066;2022-12-05T18:00:22;5.67;;;4.77;;
8895;SDS011;4484;48.928;10.066;2022-12-05T18:02:50;7.03;;;4.87;;
8895;SDS011;4484;48.928;10.066;2022-12-05T18:05:18;6.77;;;4.70;;
8895;SDS011;4484;48.928;10.066;2022-12-05T18:07:45;5.57;;;4.50;;
8895;SDS011;4484;48.928;10.066;2022-12-05T18:10:16;5.57;;;4.53;;
8895;SDS011;4484;48.928;10.066;2022-12-05T18:12:45;5.90;;;4.33;;
8895;SDS011;4484;48.928;10.066;2022-12-05T18:15:13;7.33;;;5.60;;